Time;durP1;ratioP1;P1;durP2;ratioP2;P2;SDS_P1;SDS_P2;PMS_P1;PMS_P2;Temp;Humidity;BMP_temperature;BMP_pressure;BME280_temperature;BME280_humidity;BME280_pressure;Samples;Min_cycle;Max_cycle;Signal;HPM_P1;HPM_P2
2023/09/19 00:02:14;;;;;;;3.75;2.25;;;;;;;15.53;100.00;96477.47;5037580;28;20041;-68
2023/09/19 00:04:39;;;;;;;10.70;1.90;;;;;;;15.57;100.00;96469.97;5057348;28;20507;-68
2023/09/19 00:07:05;;;;;;;7.93;1.85;;;;;;;15.59;100.00;96461.28;5037291;28;20045;-65
2023/09/19 00:09:36;;;;;;;4.63;1.83;;;;;;;15.67;100.00;96473.84;5035417;28;20060;-68
2023/09/19 00:12:04;;;;;;;6.25;2.10;;;;;;;15.67;100.00;96465.56;5040111;28;20072;-65
2023/09/19 00:14:30;;;;;;;5.72;1.85;;;;;;;15.59;100.00;96472.31;5042314;28;20091;-68
2023/09/19 00:16:55;;;;;;;5.68;1.88;;;;;;;15.49;100.00;96473.97;5037545;28;20526;-69
2023/09/19 00:19:21;;;;;;;4.20;1.80;;;;;;;15.49;100.00;96485.78;5034702;28;20503;-68
2023/09/19 00:21:47;;;;;;;12.93;2.15;;;;;;;15.49;100.00;96477.50;5036513;28;20045;-69
2023/09/19 00:24:13;;;;;;;7.43;1.98;;;;;;;15.55;100.00;96479.84;5039313;28;20083;-67
2023/09/19 00:26:39;;;;;;;7.25;1.95;;;;;;;15.70;100.00;96475.81;5037896;28;20049;-67
2023/09/19 00:29:08;;;;;;;6.18;1.70;;;;;;;16.00;100.00;96482.69;5037378;28;20055;-68
2023/09/19 00:31:37;;;;;;;4.63;1.83;;;;;;;16.22;100.00;96480.50;5039794;28;20048;-68
2023/09/19 00:34:04;;;;;;;5.57;1.50;;;;;;;16.29;100.00;96485.97;5034976;28;20095;-64
2023/09/19 00:36:29;;;;;;;4.30;1.48;;;;;;;16.31;100.00;96485.56;5042204;28;20400;-66
2023/09/19 00:38:55;;;;;;;4.13;1.40;;;;;;;16.24;100.00;96489.97;5041557;28;20055;-68
2023/09/19 00:41:21;;;;;;;6.45;1.40;;;;;;;16.24;100.00;96495.50;5036315;28;20065;-69
2023/09/19 00:43:47;;;;;;;6.50;1.50;;;;;;;16.27;100.00;96496.66;5042490;28;20492;-68
2023/09/19 00:46:17;;;;;;;6.72;1.80;;;;;;;16.29;100.00;96502.56;5031485;28;20102;-70
2023/09/19 00:48:43;;;;;;;3.78;1.65;;;;;;;16.24;100.00;96501.03;5041732;28;20041;-68
2023/09/19 00:51:09;;;;;;;5.65;1.70;;;;;;;16.19;100.00;96498.69;5034676;28;20044;-68
2023/09/19 00:53:34;;;;;;;6.35;2.03;;;;;;;16.18;100.00;96497.13;5041508;28;20045;-68
2023/09/19 00:56:00;;;;;;;3.75;1.45;;;;;;;16.25;100.00;96491.53;5041889;28;20044;-68
2023/09/19 00:58:25;;;;;;;4.03;1.63;;;;;;;16.19;100.00;96495.94;5036914;28;20381;-69
2023/09/19 01:00:53;;;;;;;5.97;1.90;;;;;;;16.15;100.00;96494.38;5041635;28;20049;-68
2023/09/19 01:03:18;;;;;;;4.80;1.85;;;;;;;16.09;100.00;96491.28;5037920;28;20063;-68
2023/09/19 01:05:44;;;;;;;3.53;1.50;;;;;;;16.00;100.00;96491.75;5058169;28;20591;-67
2023/09/19 01:08:11;;;;;;;4.70;1.70;;;;;;;16.00;100.00;96499.25;5037487;28;20152;-66
2023/09/19 01:10:46;;;;;;;3.50;1.50;;;;;;;16.08;100.00;96494.44;5046833;28;20041;-68
2023/09/19 01:13:47;;;;;;;4.72;1.60;;;;;;;16.20;100.00;96499.47;5043447;28;20045;-68
2023/09/19 01:16:39;;;;;;;5.03;2.03;;;;;;;16.31;100.00;96494.63;5041119;28;20107;-68
2023/09/19 01:19:25;;;;;;;5.72;1.67;;;;;;;16.34;100.00;96491.06;5043532;28;20136;-65
2023/09/19 01:22:17;;;;;;;6.45;1.95;;;;;;;16.39;100.00;96504.44;5041939;28;20508;-67
2023/09/19 01:25:40;;;;;;;5.55;1.33;;;;;;;16.44;100.00;96506.75;5027512;28;20054;-68
2023/09/19 01:28:20;;;;;;;5.38;1.33;;;;;;;16.38;100.00;96511.16;5029670;28;20046;-67
2023/09/19 01:30:46;;;;;;;3.80;1.55;;;;;;;16.44;100.00;96503.22;5037000;28;20075;-67
2023/09/19 01:33:12;;;;;;;4.38;1.60;;;;;;;16.44;100.00;96508.75;5036024;28;20044;-66
2023/09/19 01:35:38;;;;;;;3.95;1.70;;;;;;;16.40;100.00;96507.97;5050649;28;20099;-66
2023/09/19 01:38:11;;;;;;;7.80;2.10;;;;;;;16.41;100.00;96517.84;5043852;28;20191;-64
2023/09/19 01:40:41;;;;;;;3.35;1.38;;;;;;;16.36;100.00;96507.22;5043288;28;20064;-65
2023/09/19 01:43:24;;;;;;;5.10;1.52;;;;;;;16.42;100.00;96513.88;5038526;28;20514;-65
2023/09/19 01:46:19;;;;;;;7.25;1.40;;;;;;;16.44;100.00;96522.56;5040147;28;20152;-65
2023/09/19 01:49:16;;;;;;;6.38;1.60;;;;;;;16.31;100.00;96521.50;5033589;28;20049;-65
2023/09/19 01:51:51;;;;;;;5.50;1.65;;;;;;;16.27;100.00;96523.50;5024452;28;20053;-65
2023/09/19 01:54:26;;;;;;;3.97;1.50;;;;;;;16.30;100.00;96525.47;5017353;28;20076;-66
2023/09/19 01:57:01;;;;;;;4.30;1.52;;;;;;;16.34;100.00;96515.16;5022826;28;20081;-66
2023/09/19 01:59:35;;;;;;;3.53;1.27;;;;;;;16.32;100.00;96517.53;5020274;28;20095;-67
2023/09/19 02:02:01;;;;;;;3.40;1.58;;;;;;;16.33;100.00;96519.09;5024337;28;20049;-67
2023/09/19 02:04:27;;;;;;;3.00;1.40;;;;;;;16.32;100.00;96517.53;5040210;28;20182;-67
2023/09/19 02:06:53;;;;;;;3.33;1.30;;;;;;;16.31;100.00;96525.03;5044533;28;20530;-67
2023/09/19 02:09:19;;;;;;;3.28;1.33;;;;;;;16.33;100.00;96524.63;5039880;28;20462;-67
2023/09/19 02:11:44;;;;;;;2.80;1.50;;;;;;;16.29;100.00;96523.88;5044405;28;20074;-67
2023/09/19 02:14:09;;;;;;;2.55;1.13;;;;;;;16.19;100.00;96526.34;5036793;28;20037;-67
2023/09/19 02:16:35;;;;;;;3.80;1.48;;;;;;;16.15;100.00;96527.53;5045013;28;20044;-66
2023/09/19 02:19:05;;;;;;;4.30;1.60;;;;;;;16.15;100.00;96522.03;5043908;28;20138;-67
2023/09/19 02:21:30;;;;;;;3.72;1.40;;;;;;;16.09;100.00;96524.44;5036399;28;20079;-66
2023/09/19 02:23:56;;;;;;;3.10;1.45;;;;;;;16.11;100.00;96527.56;5044030;28;20095;-66
2023/09/19 02:26:23;;;;;;;4.22;1.27;;;;;;;16.06;100.00;96528.00;5036137;28;20053;-67
2023/09/19 02:28:48;;;;;;;2.97;1.52;;;;;;;16.07;100.00;96537.88;5044619;28;20708;-67
2023/09/19 02:31:14;;;;;;;3.97;1.25;;;;;;;16.11;100.00;96543.38;5039323;28;20041;-66
2023/09/19 02:33:39;;;;;;;3.40;1.52;;;;;;;16.16;100.00;96552.00;5038820;28;20052;-67
2023/09/19 02:36:05;;;;;;;2.78;1.70;;;;;;;16.08;100.00;96550.50;5040557;28;20040;-65
2023/09/19 02:38:30;;;;;;;2.70;1.58;;;;;;;16.16;100.00;96531.88;5046077;28;20037;-67
2023/09/19 02:40:56;;;;;;;2.78;1.50;;;;;;;16.16;100.00;96540.19;5042051;28;20053;-67
2023/09/19 02:43:22;;;;;;;2.78;1.30;;;;;;;16.21;100.00;96543.28;5038376;28;20248;-67
2023/09/19 02:45:54;;;;;;;5.35;1.48;;;;;;;16.22;100.00;96547.63;5038295;28;20053;-67
2023/09/19 02:48:20;;;;;;;3.03;1.45;;;;;;;16.20;100.00;96538.16;5036581;28;20128;-67
2023/09/19 02:50:49;;;;;;;4.93;1.77;;;;;;;16.28;100.00;96545.22;5037627;28;20045;-68
2023/09/19 02:53:14;;;;;;;5.50;1.40;;;;;;;16.30;100.00;96548.34;5038349;28;20048;-68
2023/09/19 02:55:40;;;;;;;4.07;1.20;;;;;;;16.30;100.00;96544.81;5048345;28;20063;-68
2023/09/19 02:58:14;;;;;;;2.67;1.35;;;;;;;16.42;100.00;96547.03;5045373;28;20595;-66
2023/09/19 03:00:41;;;;;;;3.33;1.55;;;;;;;16.24;100.00;96558.25;5043901;28;20037;-68
2023/09/19 03:03:08;;;;;;;2.88;1.10;;;;;;;16.25;100.00;96546.03;5038698;28;20136;-67
2023/09/19 03:05:34;;;;;;;4.85;1.30;;;;;;;16.30;100.00;96545.59;5043225;28;20080;-69
2023/09/19 03:08:02;;;;;;;5.15;1.33;;;;;;;16.26;100.00;96561.41;5043687;28;20068;-68
2023/09/19 03:10:29;;;;;;;3.05;1.30;;;;;;;16.26;100.00;96564.19;5031534;28;20036;-68
2023/09/19 03:12:54;;;;;;;7.47;2.35;;;;;;;16.31;100.00;96555.44;5036426;28;20038;-68
2023/09/19 03:15:21;;;;;;;2.97;1.60;;;;;;;16.25;100.00;96552.31;5038842;28;20047;-68
2023/09/19 03:17:48;;;;;;;5.18;1.33;;;;;;;16.28;100.00;96553.50;5043824;28;20077;-67
2023/09/19 03:20:17;;;;;;;5.60;1.20;;;;;;;16.32;100.00;96553.47;5029284;28;20071;-67
2023/09/19 03:22:43;;;;;;;5.85;1.40;;;;;;;16.30;100.00;96556.63;5031572;28;20041;-68
2023/09/19 03:25:09;;;;;;;2.28;1.10;;;;;;;16.35;100.00;96555.41;5029057;28;20507;-67
2023/09/19 03:27:35;;;;;;;5.45;1.35;;;;;;;16.27;100.00;96559.44;5039189;28;20040;-68
2023/09/19 03:30:04;;;;;;;3.22;1.60;;;;;;;16.37;100.00;96548.28;5039543;28;20048;-68
2023/09/19 03:32:29;;;;;;;4.10;1.40;;;;;;;16.28;100.00;96545.22;5025997;28;20044;-67
2023/09/19 03:34:54;;;;;;;1.98;1.08;;;;;;;16.30;100.00;96553.88;5023516;28;20041;-68
2023/09/19 03:37:20;;;;;;;4.72;1.35;;;;;;;16.31;100.00;96552.66;5019127;28;20072;-67
2023/09/19 03:39:45;;;;;;;3.30;1.27;;;;;;;16.34;100.00;96548.31;5021310;28;20041;-67
2023/09/19 03:42:11;;;;;;;5.00;1.40;;;;;;;16.43;100.00;96549.41;5018105;28;20099;-67
2023/09/19 03:44:36;;;;;;;4.45;1.30;;;;;;;16.36;100.00;96546.72;5023706;28;20041;-66
2023/09/19 03:47:04;;;;;;;8.05;1.42;;;;;;;16.41;100.00;96545.50;5016827;28;20048;-64
2023/09/19 03:49:30;;;;;;;3.00;1.30;;;;;;;16.35;100.00;96550.69;5021085;28;20076;-68
2023/09/19 03:51:55;;;;;;;2.30;1.10;;;;;;;16.28;100.00;96547.16;5025432;28;20048;-67
2023/09/19 03:54:21;;;;;;;2.90;1.33;;;;;;;16.19;100.00;96553.97;5013182;28;20050;-67
2023/09/19 03:56:46;;;;;;;3.63;1.52;;;;;;;16.25;100.00;96548.78;5043049;28;20479;-66
2023/09/19 03:59:12;;;;;;;4.85;1.30;;;;;;;16.22;100.00;96557.88;5036967;28;20148;-67
2023/09/19 04:01:37;;;;;;;2.55;1.10;;;;;;;16.20;100.00;96555.53;5042516;28;20069;-67
2023/09/19 04:04:08;;;;;;;3.65;1.30;;;;;;;16.24;100.00;96556.28;5038461;28;20044;-65
2023/09/19 04:06:35;;;;;;;2.70;1.15;;;;;;;16.19;100.00;96550.44;5042836;28;20041;-67
2023/09/19 04:09:01;;;;;;;2.63;1.25;;;;;;;16.24;100.00;96553.53;5042188;28;20059;-68
2023/09/19 04:11:26;;;;;;;2.97;1.35;;;;;;;16.28;100.00;96550.75;5028629;28;20040;-66
2023/09/19 04:13:52;;;;;;;3.58;1.50;;;;;;;16.30;100.00;96556.63;5047875;28;20098;-67
2023/09/19 04:16:17;;;;;;;2.00;1.20;;;;;;;16.17;100.00;96547.25;5042172;28;20048;-67
2023/09/19 04:18:43;;;;;;;2.67;1.33;;;;;;;16.20;100.00;96554.75;5048256;28;20036;-67
2023/09/19 04:21:08;;;;;;;2.85;1.52;;;;;;;16.19;100.00;96553.19;5034851;28;20065;-68
2023/09/19 04:23:34;;;;;;;4.50;1.27;;;;;;;16.09;100.00;96554.81;5029066;28;20048;-67
2023/09/19 04:26:00;;;;;;;1.98;1.25;;;;;;;16.02;100.00;96558.41;5023868;28;20046;-68
2023/09/19 04:28:27;;;;;;;4.53;1.40;;;;;;;15.95;100.00;96557.69;5008484;28;20396;-66
2023/09/19 04:30:53;;;;;;;2.42;1.48;;;;;;;15.92;100.00;96558.50;5026036;28;20048;-66
2023/09/19 04:33:19;;;;;;;3.22;1.20;;;;;;;16.13;100.00;96555.56;5015249;28;20552;-67
2023/09/19 04:35:44;;;;;;;3.95;1.20;;;;;;;16.02;100.00;96563.16;5023817;28;20037;-67
2023/09/19 04:38:10;;;;;;;4.55;1.58;;;;;;;16.00;100.00;96565.56;5033298;28;20048;-67
2023/09/19 04:40:35;;;;;;;4.43;1.30;;;;;;;16.10;100.00;96563.88;5021398;28;20116;-66
2023/09/19 04:43:01;;;;;;;2.72;1.30;;;;;;;16.10;100.00;96570.22;5021829;28;20532;-69
2023/09/19 04:45:29;;;;;;;2.67;1.23;;;;;;;16.06;100.00;96577.72;5016976;28;20095;-67
2023/09/19 04:47:54;;;;;;;3.72;1.38;;;;;;;16.05;100.00;96581.69;5019052;28;20041;-67
2023/09/19 04:50:21;;;;;;;2.45;1.30;;;;;;;16.02;100.00;96582.50;5016094;28;20103;-67
2023/09/19 04:52:50;;;;;;;3.47;1.35;;;;;;;16.03;100.00;96584.88;5021558;28;20132;-68
2023/09/19 04:55:18;;;;;;;4.18;1.80;;;;;;;16.12;100.00;96589.94;5014974;28;20041;-68
2023/09/19 04:57:47;;;;;;;3.08;1.48;;;;;;;16.17;100.00;96583.97;5015824;28;20095;-68
2023/09/19 05:00:14;;;;;;;3.00;1.40;;;;;;;16.15;100.00;96585.56;5014868;28;20049;-68
2023/09/19 05:02:41;;;;;;;2.70;1.20;;;;;;;16.18;100.00;96587.53;5021668;28;20048;-68
2023/09/19 05:05:08;;;;;;;1.80;1.00;;;;;;;16.20;100.00;96590.66;5015532;28;20045;-68
2023/09/19 05:07:34;;;;;;;12.15;4.15;;;;;;;16.26;100.00;96594.59;5021397;28;20046;-68
2023/09/19 05:09:59;;;;;;;4.15;1.05;;;;;;;16.18;100.00;96596.59;5020719;28;20044;-70
2023/09/19 05:12:27;;;;;;;2.55;1.17;;;;;;;16.16;100.00;96600.97;5015552;28;20068;-68
2023/09/19 05:14:52;;;;;;;5.88;1.77;;;;;;;16.20;100.00;96601.72;5022712;28;20045;-68
2023/09/19 05:17:18;;;;;;;2.10;1.20;;;;;;;16.30;100.00;96605.59;5015804;28;20053;-69
2023/09/19 05:19:43;;;;;;;4.10;1.38;;;;;;;16.33;100.00;96602.81;5019938;28;20124;-68
2023/09/19 05:22:09;;;;;;;3.22;1.05;;;;;;;16.30;100.00;96605.59;5034602;28;20052;-69
2023/09/19 05:24:34;;;;;;;3.58;1.52;;;;;;;16.25;100.00;96604.81;5040804;28;20128;-68
2023/09/19 05:27:00;;;;;;;3.17;1.15;;;;;;;16.30;100.00;96614.69;5030558;28;20508;-69
2023/09/19 05:29:26;;;;;;;5.55;1.30;;;;;;;16.32;100.00;96604.00;5021691;28;20041;-69
2023/09/19 05:31:53;;;;;;;4.13;1.13;;;;;;;16.33;100.00;96613.88;5036184;28;20045;-70
2023/09/19 05:34:19;;;;;;;5.50;1.08;;;;;;;16.33;100.00;96610.31;5029528;28;20048;-70
2023/09/19 05:36:44;;;;;;;2.92;1.10;;;;;;;16.40;100.00;96621.31;5029484;28;20106;-71
2023/09/19 05:39:10;;;;;;;2.20;1.20;;;;;;;16.41;100.00;96623.66;5023807;28;20057;-70
2023/09/19 05:41:36;;;;;;;3.25;1.02;;;;;;;16.39;100.00;96625.28;5024459;28;20049;-70
2023/09/19 05:44:03;;;;;;;3.45;0.82;;;;;;;16.38;100.00;96624.47;5021776;28;20080;-69
2023/09/19 05:46:29;;;;;;;7.65;1.85;;;;;;;16.32;100.00;96628.88;5043376;28;20053;-70
2023/09/19 05:48:56;;;;;;;5.05;1.40;;;;;;;16.51;100.00;96627.56;5041082;28;20561;-69
2023/09/19 05:51:22;;;;;;;2.75;1.35;;;;;;;16.62;100.00;96633.00;5035333;28;20069;-70
2023/09/19 05:53:48;;;;;;;5.18;1.88;;;;;;;16.77;100.00;96630.88;5041410;28;20098;-69
2023/09/19 05:56:14;;;;;;;5.15;1.30;;;;;;;16.74;100.00;96635.22;5035691;28;20045;-68
2023/09/19 05:58:44;;;;;;;2.03;0.90;;;;;;;16.62;100.00;96641.28;5039049;28;20057;-69
2023/09/19 06:01:09;;;;;;;3.67;1.77;;;;;;;16.68;100.00;96641.63;5035020;28;20477;-68
2023/09/19 06:03:35;;;;;;;4.18;1.67;;;;;;;16.70;100.00;96655.81;5038236;28;20128;-69
2023/09/19 06:06:06;;;;;;;3.30;1.25;;;;;;;16.87;100.00;96654.91;5040307;28;20117;-70
2023/09/19 06:08:33;;;;;;;5.63;2.70;;;;;;;16.98;100.00;96649.28;5039861;28;20145;-68
2023/09/19 06:10:59;;;;;;;2.28;1.05;;;;;;;17.05;100.00;96648.41;5039504;28;20033;-69
2023/09/19 06:13:26;;;;;;;3.25;1.08;;;;;;;17.07;100.00;96649.59;5033357;28;20210;-69
2023/09/19 06:15:52;;;;;;;6.97;2.45;;;;;;;17.12;100.00;96662.94;5040616;28;20554;-69
2023/09/19 06:18:19;;;;;;;5.43;1.20;;;;;;;17.19;100.00;96662.09;5033685;28;20139;-69
2023/09/19 06:20:50;;;;;;;2.58;1.10;;;;;;;17.15;100.00;96666.91;5038987;28;20120;-69
2023/09/19 06:23:17;;;;;;;3.47;1.10;;;;;;;17.14;100.00;96666.13;5039133;28;20077;-69
2023/09/19 06:25:43;;;;;;;4.68;1.17;;;;;;;17.11;100.00;96668.94;5041279;28;20079;-69
2023/09/19 06:28:12;;;;;;;2.65;1.10;;;;;;;17.17;100.00;96673.59;5032636;28;20118;-69
2023/09/19 06:30:40;;;;;;;6.50;2.33;;;;;;;17.22;100.00;96674.34;5041583;28;20102;-68
2023/09/19 06:33:06;;;;;;;1.83;0.95;;;;;;;17.16;100.00;96679.53;5031050;28;20481;-68
2023/09/19 06:35:35;;;;;;;3.28;1.38;;;;;;;17.34;100.00;96676.56;5042018;28;20057;-69
2023/09/19 06:38:04;;;;;;;2.65;1.25;;;;;;;17.38;100.00;96671.81;5034858;28;20090;-69
2023/09/19 06:40:30;;;;;;;2.88;1.08;;;;;;;17.60;100.00;96686.19;5035427;28;20357;-68
2023/09/19 06:42:57;;;;;;;14.63;2.08;;;;;;;17.48;100.00;96681.19;5027543;28;20052;-69
2023/09/19 06:45:22;;;;;;;5.07;1.00;;;;;;;17.22;100.00;96680.66;5016398;28;20962;-69
2023/09/19 06:47:50;;;;;;;3.53;1.00;;;;;;;17.05;100.00;96684.38;5012942;28;20049;-69
2023/09/19 06:50:22;;;;;;;4.20;1.38;;;;;;;17.24;100.00;96691.31;5031426;28;20503;-69
2023/09/19 06:52:53;;;;;;;6.00;1.17;;;;;;;16.96;100.00;96685.66;5043648;28;20052;-69
2023/09/19 06:55:20;;;;;;;1.88;0.90;;;;;;;17.02;100.00;96683.22;5035141;28;20045;-68
2023/09/19 06:57:48;;;;;;;5.13;1.40;;;;;;;17.24;100.00;96685.78;5041598;28;20110;-69
2023/09/19 07:00:15;;;;;;;2.13;0.90;;;;;;;17.59;100.00;96684.59;5037826;28;20369;-69
2023/09/19 07:02:44;;;;;;;4.47;0.90;;;;;;;17.67;100.00;96688.88;5042298;28;20062;-69
2023/09/19 07:05:10;;;;;;;6.60;1.42;;;;;;;17.74;100.00;96697.09;5039391;28;20484;-68
2023/09/19 07:07:36;;;;;;;3.33;1.25;;;;;;;17.92;100.00;96708.00;5050925;28;20179;-68
2023/09/19 07:10:05;;;;;;;2.53;1.10;;;;;;;17.84;100.00;96706.47;5052728;28;20087;-68
2023/09/19 07:12:32;;;;;;;2.97;1.20;;;;;;;18.00;100.00;96703.13;5043340;28;20128;-68
2023/09/19 07:14:58;;;;;;;4.65;1.00;;;;;;;18.29;100.00;96708.28;5043219;28;20045;-68
2023/09/19 07:17:23;;;;;;;3.50;1.00;;;;;;;18.44;100.00;96706.91;5034093;28;20055;-68
2023/09/19 07:19:50;;;;;;;4.78;1.42;;;;;;;18.32;100.00;96711.00;5036546;28;20041;-69
2023/09/19 07:22:15;;;;;;;3.90;0.95;;;;;;;18.57;100.00;96714.66;5034518;28;20059;-69
2023/09/19 07:24:41;;;;;;;2.45;0.80;;;;;;;19.08;100.00;96718.97;5041554;28;20053;-69
2023/09/19 07:27:07;;;;;;;5.43;1.30;;;;;;;19.07;100.00;96724.97;5042546;28;20071;-68
2023/09/19 07:29:32;;;;;;;3.47;1.20;;;;;;;19.93;100.00;96719.84;5047253;28;20045;-68
2023/09/19 07:31:57;;;;;;;6.22;1.02;;;;;;;20.54;100.00;96729.66;5043853;28;20061;-68
2023/09/19 07:34:23;;;;;;;2.38;0.80;;;;;;;21.13;97.18;96736.25;5038539;28;20384;-68
2023/09/19 07:36:48;;;;;;;6.20;0.90;;;;;;;21.87;91.72;96735.50;5044587;28;20059;-68
2023/09/19 07:39:14;;;;;;;1.10;0.75;;;;;;;22.33;86.98;96741.81;5038048;28;20037;-68
2023/09/19 07:41:39;;;;;;;3.90;0.70;;;;;;;21.37;90.18;96737.63;5041795;28;20516;-67
2023/09/19 07:44:05;;;;;;;2.00;0.82;;;;;;;21.95;87.57;96747.28;5037810;28;20518;-67
2023/09/19 07:46:31;;;;;;;1.67;0.70;;;;;;;21.99;84.72;96747.16;5035261;28;20048;-68
2023/09/19 07:48:57;;;;;;;1.55;0.60;;;;;;;21.90;85.92;96745.03;5042042;28;20040;-67
2023/09/19 07:51:22;;;;;;;1.80;0.80;;;;;;;21.71;85.60;96750.28;5034140;28;20065;-68
2023/09/19 07:53:48;;;;;;;2.70;0.60;;;;;;;21.87;84.04;96757.03;5042184;28;20029;-68
2023/09/19 07:56:13;;;;;;;4.00;0.60;;;;;;;21.90;82.71;96745.03;5037593;28;20616;-68
2023/09/19 07:58:43;;;;;;;2.90;0.68;;;;;;;22.10;82.81;96745.63;5042141;28;20484;-68
2023/09/19 08:01:10;;;;;;;1.35;0.75;;;;;;;22.05;81.45;96746.16;5035258;28;20048;-68
2023/09/19 08:03:43;;;;;;;1.50;0.70;;;;;;;21.93;81.83;96750.50;5041897;28;20495;-68
2023/09/19 08:06:08;;;;;;;3.13;0.73;;;;;;;22.85;78.25;96764.16;5037152;28;20053;-68
2023/09/19 08:08:37;;;;;;;1.92;0.90;;;;;;;22.94;73.45;96763.47;5041722;28;20495;-68
2023/09/19 08:11:21;;;;;;;4.03;1.13;;;;;;;23.33;71.23;96767.06;5040435;28;20625;-67
2023/09/19 08:13:48;;;;;;;3.42;1.00;;;;;;;23.29;70.30;96756.75;5027805;28;20041;-69
2023/09/19 08:16:17;;;;;;;5.63;1.35;;;;;;;23.96;68.79;96771.69;5037390;28;20040;-69
2023/09/19 08:18:47;;;;;;;3.67;1.13;;;;;;;24.74;65.11;96767.22;5041356;28;20041;-69
2023/09/19 08:21:14;;;;;;;4.22;0.90;;;;;;;25.35;61.65;96770.41;5036218;28;20165;-69
2023/09/19 08:23:40;;;;;;;4.13;0.80;;;;;;;24.46;62.45;96771.09;5040908;28;20044;-69
2023/09/19 08:26:08;;;;;;;5.63;1.05;;;;;;;24.97;61.04;96773.53;5037101;28;20045;-69
2023/09/19 08:28:34;;;;;;;3.70;0.80;;;;;;;24.66;61.57;96770.75;5034823;28;21676;-69
2023/09/19 08:31:06;;;;;;;5.25;0.93;;;;;;;23.86;63.08;96781.25;5021093;28;20045;-67
2023/09/19 08:33:33;;;;;;;2.10;0.77;;;;;;;23.67;65.74;96774.66;5021495;28;20041;-68
2023/09/19 08:35:59;;;;;;;1.95;0.82;;;;;;;24.68;62.41;96779.47;5021847;28;20057;-68
2023/09/19 08:38:29;;;;;;;3.10;0.85;;;;;;;24.94;59.79;96783.66;5016633;28;20045;-68
2023/09/19 08:40:58;;;;;;;4.57;1.35;;;;;;;25.48;58.13;96789.91;5018382;28;20387;-68
2023/09/19 08:43:24;;;;;;;2.80;0.75;;;;;;;25.46;57.73;96803.63;5017046;28;20979;-69
2023/09/19 08:45:49;;;;;;;1.85;0.70;;;;;;;25.06;57.44;96795.97;5015548;28;20041;-68
2023/09/19 08:48:28;;;;;;;4.53;0.80;;;;;;;24.56;61.63;96800.72;5012811;28;20118;-68
2023/09/19 08:50:58;;;;;;;2.55;0.98;;;;;;;23.90;63.41;96798.69;5018811;28;20167;-68
2023/09/19 08:53:53;;;;;;;3.40;0.95;;;;;;;24.00;65.85;96791.94;5015792;28;20053;-68
2023/09/19 08:56:19;;;;;;;2.53;0.90;;;;;;;23.59;66.57;96798.53;5031517;28;20037;-67
2023/09/19 08:58:54;;;;;;;2.92;1.17;;;;;;;23.70;65.99;96792.53;5033094;28;20072;-68
2023/09/19 09:01:26;;;;;;;3.08;0.70;;;;;;;24.81;61.79;96799.75;5036005;28;20491;-68
2023/09/19 09:03:56;;;;;;;2.33;0.77;;;;;;;24.97;59.65;96807.16;5041406;28;20387;-66
2023/09/19 09:06:23;;;;;;;4.25;0.98;;;;;;;24.03;63.07;96802.19;5035822;28;20045;-67
2023/09/19 09:08:52;;;;;;;2.60;0.82;;;;;;;23.16;67.23;96797.94;5033231;28;20137;-67
2023/09/19 09:11:18;;;;;;;2.47;1.27;;;;;;;22.40;71.30;96790.25;5036088;28;20068;-68
2023/09/19 09:13:47;;;;;;;4.68;0.90;;;;;;;23.75;66.25;96795.56;5040885;28;20087;-67
2023/09/19 09:16:17;;;;;;;4.35;1.38;;;;;;;25.02;60.40;96800.94;5034844;28;20045;-67
2023/09/19 09:18:44;;;;;;;;;;;;;;;24.63;57.49;96806.03;5041418;28;20518;-67
2023/09/19 09:21:09;;;;;;;5.28;1.15;;;;;;;23.90;58.79;96797.91;5035153;28;19931;-69
2023/09/19 09:23:35;;;;;;;3.65;0.98;;;;;;;23.80;59.38;96802.63;5041087;28;20041;-67
2023/09/19 09:26:05;;;;;;;7.18;1.20;;;;;;;23.07;61.39;96798.59;5040964;28;20107;-67
2023/09/19 09:28:31;;;;;;;1.77;0.75;;;;;;;22.35;65.94;96801.97;5037371;28;20480;-70
2023/09/19 09:31:07;;;;;;;3.35;1.00;;;;;;;21.90;68.94;96798.78;5032319;28;20500;-67
2023/09/19 09:33:33;;;;;;;3.60;1.27;;;;;;;21.43;72.01;96796.38;5007666;28;20041;-67
2023/09/19 09:36:00;;;;;;;6.72;3.10;;;;;;;21.56;73.15;96799.28;5001601;28;20092;-67
2023/09/19 09:38:43;;;;;;;3.30;1.10;;;;;;;21.93;71.84;96799.88;4995873;28;20119;-68
2023/09/19 09:41:09;;;;;;;1.77;0.70;;;;;;;22.00;73.46;96802.47;4996115;28;20180;-68
2023/09/19 09:43:41;;;;;;;3.25;0.93;;;;;;;21.72;72.51;96796.44;5000087;28;20049;-67
2023/09/19 09:46:50;;;;;;;4.55;1.00;;;;;;;21.51;74.32;96797.78;4994366;28;20448;-68
2023/09/19 09:51:59;;;;;;;5.68;1.30;;;;;;;21.81;75.05;96797.84;5020012;28;20049;-68
2023/09/19 09:54:41;;;;;;;3.33;1.05;;;;;;;22.10;72.81;96800.63;5016277;28;20080;-68
2023/09/19 09:57:16;;;;;;;3.60;2.10;;;;;;;21.35;76.29;96786.63;5016065;28;20104;-68
2023/09/19 09:59:53;;;;;;;5.05;1.10;;;;;;;21.25;75.71;96793.25;5012715;28;20041;-69
2023/09/19 10:02:40;;;;;;;3.10;1.10;;;;;;;21.32;77.00;96793.06;5015413;28;20076;-69
2023/09/19 10:07:52;;;;;;;3.47;1.23;;;;;;;21.43;76.76;96781.66;5023785;28;20033;-70
2023/09/19 10:13:15;;;;;;;3.25;1.20;;;;;;;22.22;72.80;96797.09;5019629;28;20045;-69
2023/09/19 10:15:50;;;;;;;1.75;0.80;;;;;;;22.09;72.41;96785.91;5023999;28;20119;-68
2023/09/19 10:18:20;;;;;;;4.18;1.10;;;;;;;22.95;68.27;96799.34;5019514;28;20133;-69
2023/09/19 10:20:46;;;;;;;2.28;1.00;;;;;;;23.58;65.04;96792.13;5023962;28;20080;-69
2023/09/19 10:23:12;;;;;;;4.15;0.85;;;;;;;23.52;64.22;96793.97;5019136;28;20042;-69
2023/09/19 10:25:42;;;;;;;6.95;1.05;;;;;;;23.10;65.14;96799.69;5023820;28;20073;-69
2023/09/19 10:28:13;;;;;;;3.00;1.08;;;;;;;22.71;67.64;96799.66;5018742;28;20049;-69
2023/09/19 10:30:46;;;;;;;3.28;1.00;;;;;;;22.29;68.79;96796.94;5023768;28;20397;-68
2023/09/19 10:33:14;;;;;;;3.85;1.50;;;;;;;21.85;73.03;96787.38;5019675;28;20041;-68
2023/09/19 10:35:43;;;;;;;2.20;0.93;;;;;;;21.66;74.53;96794.63;5023674;28;20168;-68
2023/09/19 10:38:14;;;;;;;2.92;0.70;;;;;;;21.25;77.85;96796.81;5019556;28;20451;-67
2023/09/19 10:40:50;;;;;;;1.88;0.93;;;;;;;20.76;82.14;96797.56;5023671;28;20116;-67
2023/09/19 10:43:20;;;;;;;2.38;1.15;;;;;;;20.78;83.40;96797.16;5018695;28;20467;-68
2023/09/19 10:45:49;;;;;;;2.28;1.05;;;;;;;20.71;84.09;96788.94;5023542;28;20045;-67
2023/09/19 10:48:18;;;;;;;2.33;1.08;;;;;;;20.69;85.26;96802.50;5019498;28;20053;-70
2023/09/19 10:51:05;;;;;;;2.47;0.90;;;;;;;20.86;84.19;96797.75;5017458;28;20041;-70
2023/09/19 10:53:51;;;;;;;3.28;1.10;;;;;;;20.67;85.79;96796.56;5023391;28;20053;-68
2023/09/19 10:56:53;;;;;;;3.83;1.08;;;;;;;20.87;84.86;96793.75;5014432;28;20129;-69
2023/09/19 10:59:24;;;;;;;3.75;0.80;;;;;;;21.02;85.21;96795.00;5014268;28;20392;-69
2023/09/19 11:01:53;;;;;;;4.45;1.67;;;;;;;21.15;84.79;96798.63;5023577;28;20485;-69
2023/09/19 11:04:35;;;;;;;5.05;1.10;;;;;;;21.41;81.10;96792.44;5019198;28;20041;-68
2023/09/19 11:07:08;;;;;;;4.72;1.35;;;;;;;21.23;81.86;96792.91;5024264;28;20049;-69
2023/09/19 11:09:57;;;;;;;2.33;1.13;;;;;;;21.58;80.45;96785.69;5021137;28;20480;-68
2023/09/19 11:12:29;;;;;;;4.17;1.90;;;;;;;21.45;79.11;96782.81;5019231;28;20049;-68
2023/09/19 11:14:54;;;;;;;2.80;1.02;;;;;;;21.08;82.23;96784.88;5022706;28;20299;-68
2023/09/19 11:17:21;;;;;;;3.28;1.25;;;;;;;21.21;81.50;96782.19;5018141;28;20392;-68
2023/09/19 11:20:15;;;;;;;2.95;1.10;;;;;;;21.13;82.35;96780.81;5027402;28;20037;-67
2023/09/19 11:23:07;;;;;;;5.47;1.17;;;;;;;21.18;81.81;96789.41;5043529;28;20037;-68
2023/09/19 11:25:41;;;;;;;4.93;1.13;;;;;;;21.34;82.88;96776.72;5021342;28;20057;-68
2023/09/19 11:28:15;;;;;;;5.35;1.15;;;;;;;21.70;78.66;96775.81;5018058;28;20136;-67
2023/09/19 11:30:58;;;;;;;3.20;1.08;;;;;;;21.72;78.64;96773.38;5020594;28;20057;-67
2023/09/19 11:36:15;;;;;;;5.55;1.17;;;;;;;21.46;80.33;96772.47;5022775;28;20115;-67
2023/09/19 11:38:44;;;;;;;6.35;1.52;;;;;;;21.49;78.48;96768.81;5042276;28;20124;-68
2023/09/19 11:43:48;;;;;;;3.15;1.00;;;;;;;21.88;77.88;96767.75;5032812;28;20041;-68
2023/09/19 11:46:21;;;;;;;4.20;0.93;;;;;;;22.26;74.24;96772.69;5032324;28;20076;-68
2023/09/19 11:48:48;;;;;;;2.40;1.08;;;;;;;22.36;75.04;96781.97;5027525;28;20227;-67
2023/09/19 11:51:19;;;;;;;2.55;1.10;;;;;;;22.37;73.32;96782.78;5023435;28;20096;-68
2023/09/19 11:53:48;;;;;;;2.92;1.08;;;;;;;22.85;70.77;96776.13;5016157;28;20167;-72